createdAt,value
2023-01-18T00:00:46.072Z,-0.60
2023-01-18T00:06:05.861Z,-0.40
2023-01-18T00:11:13.945Z,-0.30
2023-01-18T00:16:21.893Z,-0.10
2023-01-18T00:21:26.888Z,0.00
2023-01-18T00:26:29.535Z,0.00
2023-01-18T00:31:32.411Z,-0.10
2023-01-18T00:36:35.130Z,0.20
2023-01-18T00:41:57.617Z,0.30
2023-01-18T00:47:00.204Z,0.30
2023-01-18T00:52:02.686Z,0.30
2023-01-18T00:57:05.187Z,0.10
2023-01-18T01:02:07.903Z,0.30
2023-01-18T01:07:11.531Z,0.50
2023-01-18T01:12:32.374Z,0.80
2023-01-18T01:17:56.214Z,1.00
2023-01-18T01:23:26.129Z,1.10
2023-01-18T01:28:28.623Z,1.30
2023-01-18T01:33:32.539Z,1.50
2023-01-18T01:38:35.615Z,1.60
2023-01-18T01:43:45.003Z,1.60
2023-01-18T01:48:48.854Z,1.70
2023-01-18T01:53:51.872Z,1.50
2023-01-18T01:58:58.678Z,1.50
2023-01-18T02:04:02.383Z,1.60
2023-01-18T02:09:12.393Z,1.70
2023-01-18T02:14:16.564Z,1.90
2023-01-18T02:19:56.497Z,2.00
2023-01-18T02:25:17.654Z,2.10
2023-01-18T02:30:45.485Z,2.20
2023-01-18T02:35:57.046Z,2.10
2023-01-18T02:41:14.752Z,2.20
2023-01-18T02:46:38.884Z,2.30
2023-01-18T02:51:41.519Z,2.40
2023-01-18T02:56:52.780Z,2.40
2023-01-18T03:02:05.800Z,2.40
2023-01-18T03:07:21.452Z,2.50
2023-01-18T03:12:48.454Z,2.60
2023-01-18T03:18:16.444Z,2.60
2023-01-18T03:23:39.953Z,2.50
2023-01-18T03:29:07.456Z,2.50
2023-01-18T03:34:36.388Z,2.60
2023-01-18T03:39:45.596Z,2.60
2023-01-18T03:45:15.836Z,2.50
2023-01-18T03:50:19.457Z,2.50
2023-01-18T03:55:37.040Z,2.50
2023-01-18T04:00:40.437Z,2.40
2023-01-18T04:05:43.167Z,2.40
2023-01-18T04:10:45.984Z,2.40
2023-01-18T04:15:49.412Z,2.30
2023-01-18T04:20:56.423Z,2.30
2023-01-18T04:25:59.085Z,2.30
2023-01-18T04:31:02.614Z,2.20
2023-01-18T04:36:05.389Z,2.10
2023-01-18T04:41:07.924Z,2.10
2023-01-18T04:46:10.411Z,2.00
2023-01-18T04:51:14.613Z,2.00
2023-01-18T04:56:17.880Z,1.90
2023-01-18T05:01:21.649Z,2.00
2023-01-18T05:06:24.676Z,2.00
2023-01-18T05:11:27.255Z,2.00
2023-01-18T05:16:29.881Z,2.00
2023-01-18T05:21:32.380Z,2.00
2023-01-18T05:26:35.199Z,1.90
2023-01-18T05:31:37.733Z,1.90
2023-01-18T05:36:40.296Z,1.90
2023-01-18T05:41:42.781Z,1.90
2023-01-18T05:46:45.323Z,1.90
2023-01-18T05:51:47.840Z,1.80
2023-01-18T05:56:50.445Z,2.00
2023-01-18T06:01:52.932Z,1.80
2023-01-18T06:06:55.595Z,1.70
2023-01-18T06:11:58.226Z,1.60
2023-01-18T06:17:01.755Z,1.50
2023-01-18T06:22:05.495Z,1.50
2023-01-18T06:27:08.067Z,1.50
2023-01-18T06:32:10.605Z,1.50
2023-01-18T06:37:13.736Z,1.50
2023-01-18T06:42:16.302Z,1.50
2023-01-18T06:47:20.005Z,1.50
2023-01-18T06:52:23.052Z,1.50
2023-01-18T06:57:25.599Z,1.50
2023-01-18T07:02:30.803Z,1.60
2023-01-18T07:07:33.652Z,1.60
2023-01-18T07:12:36.302Z,1.60
2023-01-18T07:17:38.972Z,1.60
2023-01-18T07:22:41.847Z,1.70
2023-01-18T07:27:44.509Z,1.70
2023-01-18T07:32:49.420Z,1.70
2023-01-18T07:37:55.560Z,1.60
2023-01-18T07:42:58.872Z,1.60
2023-01-18T07:48:01.561Z,1.70
2023-01-18T07:53:06.725Z,1.70
2023-01-18T07:58:09.358Z,1.70
2023-01-18T08:03:17.301Z,1.80
2023-01-18T08:08:19.949Z,1.80
2023-01-18T08:13:23.511Z,1.80
2023-01-18T08:18:27.224Z,1.90
2023-01-18T08:23:29.831Z,1.90
2023-01-18T08:28:32.924Z,1.90
2023-01-18T08:33:45.549Z,1.90
2023-01-18T08:38:53.927Z,2.00
2023-01-18T08:43:57.816Z,2.00
2023-01-18T08:49:00.701Z,2.00
2023-01-18T08:54:03.261Z,2.00
2023-01-18T08:59:08.893Z,2.10
2023-01-18T09:04:11.660Z,2.10
2023-01-18T09:09:14.380Z,2.10
2023-01-18T09:14:16.845Z,2.20
2023-01-18T09:19:19.482Z,2.20
2023-01-18T09:24:22.232Z,2.20
2023-01-18T09:29:24.761Z,2.20
2023-01-18T09:34:27.363Z,2.20
2023-01-18T09:39:33.414Z,2.20
2023-01-18T09:44:42.874Z,2.20
2023-01-18T09:49:59.701Z,2.20
2023-01-18T09:55:14.271Z,2.30
2023-01-18T10:00:26.141Z,2.30
2023-01-18T10:05:33.326Z,2.30
2023-01-18T10:10:44.970Z,2.40
2023-01-18T10:15:49.462Z,2.30
2023-01-18T10:21:01.470Z,2.30
2023-01-18T10:26:13.447Z,2.30
2023-01-18T10:32:00.592Z,2.30
2023-01-18T10:37:21.737Z,2.30
2023-01-18T10:42:29.678Z,2.30
2023-01-18T10:47:34.105Z,2.30
2023-01-18T10:52:36.732Z,2.50
2023-01-18T10:57:47.599Z,2.30
2023-01-18T11:02:53.306Z,2.30
2023-01-18T11:08:21.454Z,2.30
2023-01-18T11:13:34.026Z,2.30
2023-01-18T11:18:36.634Z,2.30
2023-01-18T11:23:42.499Z,2.20
2023-01-18T11:28:52.217Z,2.30
2023-01-18T11:33:57.938Z,2.20
2023-01-18T11:39:19.817Z,2.20
2023-01-18T11:44:27.041Z,2.20
2023-01-18T11:49:39.178Z,2.20
2023-01-18T11:55:07.497Z,2.30
2023-01-18T12:00:14.033Z,2.40
2023-01-18T12:05:45.626Z,2.40
2023-01-18T12:11:14.920Z,2.40
2023-01-18T12:16:35.624Z,2.30
2023-01-18T12:21:47.209Z,2.40
2023-01-18T12:26:59.563Z,2.40
2023-01-18T12:32:11.372Z,2.50
2023-01-18T12:37:35.367Z,2.70
2023-01-18T12:42:46.985Z,2.50
2023-01-18T12:48:00.993Z,2.30
2023-01-18T12:53:10.671Z,2.20
2023-01-18T12:58:20.240Z,2.10
2023-01-18T13:03:29.933Z,2.10
2023-01-18T13:08:47.412Z,2.00
2023-01-18T13:13:59.495Z,1.90
2023-01-18T13:19:29.415Z,1.80
2023-01-18T13:25:08.958Z,1.80
2023-01-18T13:30:19.364Z,1.60
2023-01-18T13:35:31.715Z,1.60
2023-01-18T13:40:43.879Z,1.70
2023-01-18T13:46:16.074Z,1.70
2023-01-18T13:51:37.161Z,1.70
2023-01-18T13:56:40.459Z,1.70
2023-01-18T14:01:44.847Z,1.60
2023-01-18T14:06:48.275Z,1.60
2023-01-18T14:11:58.285Z,1.70
2023-01-18T14:17:16.246Z,1.60
2023-01-18T14:22:34.142Z,1.60
2023-01-18T14:27:41.586Z,3.40
2023-01-18T14:33:02.883Z,1.60
2023-01-18T14:38:18.712Z,1.70
2023-01-18T14:43:29.217Z,1.70
2023-01-18T14:48:34.803Z,1.60
2023-01-18T14:53:50.370Z,1.50
2023-01-18T14:59:05.326Z,1.60
2023-01-18T15:04:23.833Z,1.60
2023-01-18T15:09:28.297Z,1.60
2023-01-18T15:14:38.091Z,1.60
2023-01-18T15:19:44.066Z,1.60
2023-01-18T15:24:47.274Z,1.60
2023-01-18T15:29:54.901Z,1.50
2023-01-18T15:34:59.015Z,1.50
2023-01-18T15:40:21.837Z,1.60
2023-01-18T15:45:25.741Z,0.40
2023-01-18T15:50:38.555Z,1.60
2023-01-18T15:55:47.261Z,1.60
2023-01-18T16:01:00.921Z,1.60
2023-01-18T16:06:08.507Z,1.70
2023-01-18T16:11:26.997Z,1.70
2023-01-18T16:16:34.299Z,1.60
2023-01-18T16:21:45.329Z,1.60
2023-01-18T16:26:48.769Z,1.60
2023-01-18T16:31:51.380Z,1.50
2023-01-18T16:36:55.077Z,1.50
2023-01-18T16:41:58.395Z,1.50
2023-01-18T16:47:01.135Z,1.50
2023-01-18T16:52:04.721Z,1.50
2023-01-18T16:57:07.411Z,1.50
2023-01-18T17:02:09.982Z,1.60
2023-01-18T17:07:14.359Z,1.60
2023-01-18T17:12:17.564Z,1.60
2023-01-18T17:17:20.101Z,1.50
2023-01-18T17:22:22.686Z,1.60
2023-01-18T17:27:25.274Z,1.60
2023-01-18T17:37:36.007Z,1.50
2023-01-18T17:42:38.626Z,1.50
2023-01-18T17:47:43.234Z,1.60
2023-01-18T17:52:46.051Z,1.60
2023-01-18T17:57:48.655Z,1.60
2023-01-18T18:02:52.663Z,1.60
2023-01-18T18:07:55.669Z,1.70
2023-01-18T18:12:59.729Z,1.50
2023-01-18T18:18:04.064Z,1.50
2023-01-18T18:23:08.173Z,1.60
2023-01-18T18:28:10.929Z,1.60
2023-01-18T18:33:13.699Z,2.00
2023-01-18T18:38:18.659Z,1.50
2023-01-18T18:43:21.903Z,1.60
2023-01-18T18:48:24.759Z,1.50
2023-01-18T18:53:37.627Z,1.40
2023-01-18T18:58:41.590Z,1.40
2023-01-18T19:03:44.535Z,1.40
2023-01-18T19:08:47.777Z,1.30
2023-01-18T19:13:50.587Z,1.30
2023-01-18T19:18:53.639Z,1.50
2023-01-18T19:23:56.396Z,1.40
2023-01-18T19:28:59.216Z,1.40
2023-01-18T19:34:02.140Z,1.40
2023-01-18T19:39:09.315Z,1.30
2023-01-18T19:44:17.289Z,1.40
2023-01-18T19:49:20.328Z,1.30
2023-01-18T19:54:22.918Z,1.40
2023-01-18T19:59:26.070Z,1.30
2023-01-18T20:04:29.378Z,1.40
2023-01-18T20:09:42.777Z,1.40
2023-01-18T20:14:46.102Z,1.40
2023-01-18T20:19:50.930Z,1.30
2023-01-18T20:24:53.549Z,1.30
2023-01-18T20:29:58.254Z,1.40
2023-01-18T20:35:00.980Z,1.40
2023-01-18T20:40:03.657Z,1.60
2023-01-18T20:45:07.207Z,1.60
2023-01-18T20:50:10.328Z,1.60
2023-01-18T20:55:14.725Z,1.60
2023-01-18T21:00:19.671Z,1.50
2023-01-18T21:05:22.997Z,1.50
2023-01-18T21:10:38.494Z,1.50
2023-01-18T21:15:46.538Z,1.50
2023-01-18T21:20:57.035Z,1.50
2023-01-18T21:26:01.653Z,1.50
2023-01-18T21:31:04.955Z,1.60
2023-01-18T21:36:11.654Z,1.60
2023-01-18T21:41:32.688Z,1.70
2023-01-18T21:46:35.494Z,1.70
2023-01-18T21:51:56.672Z,1.70
2023-01-18T21:56:59.310Z,1.80
2023-01-18T22:02:03.022Z,1.80
2023-01-18T22:07:05.567Z,1.70
2023-01-18T22:12:08.172Z,1.70
2023-01-18T22:17:10.714Z,1.80
2023-01-18T22:22:14.161Z,1.80
2023-01-18T22:27:16.861Z,1.70
2023-01-18T22:32:19.427Z,1.50
2023-01-18T22:37:25.939Z,1.60
2023-01-18T22:42:28.522Z,1.50
2023-01-18T22:47:31.061Z,1.50
2023-01-18T22:52:33.632Z,1.70
2023-01-18T22:57:36.293Z,1.80
2023-01-18T23:02:38.983Z,1.80
2023-01-18T23:07:41.571Z,1.90
2023-01-18T23:12:45.074Z,2.00
2023-01-18T23:17:47.594Z,2.00
2023-01-18T23:22:51.531Z,1.80
2023-01-18T23:27:54.066Z,1.70
2023-01-18T23:32:57.223Z,1.70
2023-01-18T23:38:00.981Z,1.70
2023-01-18T23:43:22.536Z,1.80
2023-01-18T23:48:43.505Z,1.80
2023-01-18T23:54:05.299Z,1.70
2023-01-18T23:59:08.858Z,1.80
